createdAt,value
2023-04-02T00:00:15.420Z,91.49
2023-04-02T00:01:28.484Z,91.08
2023-04-02T00:02:22.897Z,91.15
2023-04-02T00:03:15.375Z,91.12
2023-04-02T00:04:22.341Z,91.06
2023-04-02T00:05:18.283Z,90.98
2023-04-02T00:06:33.932Z,91.03
2023-04-02T00:07:33.304Z,91.23
2023-04-02T00:08:42.862Z,91.25
2023-04-02T00:09:38.041Z,91.42
2023-04-02T00:10:40.045Z,91.07
2023-04-02T00:11:37.435Z,91.17
2023-04-02T00:12:31.325Z,91.18
2023-04-02T00:13:35.661Z,91.05
2023-04-02T00:14:32.014Z,91.42
2023-04-02T00:15:23.508Z,91.19
2023-04-02T00:16:23.728Z,91.02
2023-04-02T00:17:18.250Z,91.20
2023-04-02T00:18:18.310Z,91.09
2023-04-02T00:19:29.553Z,91.29
2023-04-02T00:20:22.938Z,91.26
2023-04-02T00:21:21.242Z,90.96
2023-04-02T00:22:22.446Z,91.28
2023-04-02T00:23:15.469Z,91.43
2023-04-02T00:24:20.230Z,90.94
2023-04-02T00:25:15.794Z,91.09
2023-04-02T00:26:21.565Z,90.97
2023-04-02T00:27:15.681Z,91.24
2023-04-02T00:28:14.070Z,90.98
2023-04-02T00:29:07.381Z,90.96
2023-04-02T00:29:59.296Z,91.28
2023-04-02T00:30:55.511Z,91.21
2023-04-02T00:31:52.677Z,91.28
2023-04-02T00:32:44.350Z,91.29
2023-04-02T00:33:36.170Z,91.20
2023-04-02T00:34:37.656Z,91.36
2023-04-02T00:35:30.817Z,91.27
2023-04-02T00:36:28.096Z,91.37
2023-04-02T00:37:23.739Z,91.40
2023-04-02T00:38:20.262Z,91.34
2023-04-02T00:39:20.262Z,91.38
2023-04-02T00:40:25.595Z,91.23
2023-04-02T00:41:24.187Z,91.11
2023-04-02T00:42:18.157Z,91.40
2023-04-02T00:43:16.428Z,91.45
2023-04-02T00:44:12.421Z,91.04
2023-04-02T00:45:07.672Z,91.07
2023-04-02T00:46:04.032Z,91.21
2023-04-02T00:46:58.220Z,90.94
2023-04-02T00:47:50.944Z,91.17
2023-04-02T00:48:56.205Z,91.31
2023-04-02T00:49:56.973Z,90.93
2023-04-02T00:50:49.170Z,91.30
2023-04-02T00:51:56.727Z,90.93
2023-04-02T00:52:53.967Z,90.68
2023-04-02T00:53:49.229Z,90.64
2023-04-02T00:54:53.243Z,89.92
2023-04-02T00:55:46.123Z,90.13
2023-04-02T00:56:41.973Z,90.33
2023-04-02T00:57:34.821Z,90.03
2023-04-02T00:58:33.600Z,89.77
2023-04-02T00:59:31.437Z,90.18
2023-04-02T01:00:29.224Z,90.23
2023-04-02T01:01:26.858Z,89.83
2023-04-02T01:02:18.490Z,88.94
2023-04-02T01:03:16.919Z,88.97
2023-04-02T01:04:32.568Z,89.27
2023-04-02T01:05:24.530Z,88.33
2023-04-02T01:06:18.789Z,88.50
2023-04-02T01:07:12.261Z,88.43
2023-04-02T01:08:06.725Z,88.57
2023-04-02T01:09:26.701Z,88.27
2023-04-02T01:10:42.579Z,88.97
2023-04-02T01:11:47.904Z,88.87
2023-04-02T01:12:53.567Z,88.65
2023-04-02T01:14:07.217Z,88.21
2023-04-02T01:15:21.294Z,88.17
2023-04-02T01:16:37.462Z,87.80
2023-04-02T01:17:49.078Z,88.33
2023-04-02T01:19:07.373Z,88.35
2023-04-02T01:20:27.723Z,88.97
2023-04-02T01:21:31.596Z,88.24
2023-04-02T01:22:52.798Z,88.48
2023-04-02T01:24:15.840Z,88.50
2023-04-02T01:25:08.415Z,88.45
2023-04-02T01:26:18.958Z,88.55
2023-04-02T01:27:29.750Z,88.93
2023-04-02T01:28:51.288Z,89.06
2023-04-02T01:30:01.205Z,88.63
2023-04-02T01:30:56.477Z,88.57
2023-04-02T01:31:51.928Z,88.62
2023-04-02T01:32:45.335Z,88.84
2023-04-02T01:33:40.830Z,88.75
2023-04-02T01:34:33.690Z,88.09
2023-04-02T01:35:34.635Z,87.65
2023-04-02T01:37:02.892Z,87.62
2023-04-02T01:38:14.064Z,88.16
2023-04-02T01:39:25.978Z,87.77
2023-04-02T01:40:28.282Z,86.92
2023-04-02T01:41:46.325Z,86.89
2023-04-02T01:42:51.953Z,86.98
2023-04-02T01:43:58.925Z,87.65
2023-04-02T01:45:01.481Z,87.77
2023-04-02T01:45:53.074Z,87.42
2023-04-02T01:46:48.881Z,87.04
2023-04-02T01:47:42.878Z,87.15
2023-04-02T01:48:34.479Z,87.34
2023-04-02T01:49:27.272Z,87.74
2023-04-02T01:50:19.126Z,87.78
2023-04-02T01:51:27.609Z,87.72
2023-04-02T01:52:38.996Z,87.36
2023-04-02T01:53:31.294Z,87.51
2023-04-02T01:54:25.866Z,86.41
2023-04-02T01:55:24.486Z,86.26
2023-04-02T01:56:16.006Z,86.45
2023-04-02T01:57:09.198Z,86.48
2023-04-02T01:58:03.711Z,86.44
2023-04-02T01:58:58.408Z,86.33
2023-04-02T01:59:53.673Z,85.81
2023-04-02T02:00:55.845Z,86.51
2023-04-02T02:01:52.353Z,86.19
2023-04-02T02:02:49.389Z,86.09
2023-04-02T02:03:44.378Z,85.60
2023-04-02T02:04:37.008Z,85.87
2023-04-02T02:05:31.338Z,85.09
2023-04-02T02:06:24.388Z,85.47
2023-04-02T02:07:20.727Z,85.31
2023-04-02T02:08:30.438Z,85.37
2023-04-02T02:09:27.569Z,85.66
2023-04-02T02:10:27.263Z,85.62
2023-04-02T02:11:22.970Z,86.02
2023-04-02T02:12:15.714Z,86.15
2023-04-02T02:13:07.403Z,84.69
2023-04-02T02:14:18.601Z,85.19
2023-04-02T02:15:17.401Z,85.47
2023-04-02T02:16:17.765Z,85.29
2023-04-02T02:17:24.016Z,84.96
2023-04-02T02:18:23.412Z,84.35
2023-04-02T02:19:27.188Z,84.56
2023-04-02T02:20:18.938Z,84.83
2023-04-02T02:21:21.418Z,84.72
2023-04-02T02:22:33.682Z,85.48
2023-04-02T02:23:29.753Z,85.86
2023-04-02T02:24:27.109Z,85.00
2023-04-02T02:25:22.394Z,84.52
2023-04-02T02:26:16.010Z,84.90
2023-04-02T02:27:48.180Z,85.00
2023-04-02T02:28:49.929Z,85.46
2023-04-02T02:29:45.641Z,85.08
2023-04-02T02:30:51.278Z,84.92
2023-04-02T02:31:47.513Z,85.04
2023-04-02T02:32:54.113Z,84.53
2023-04-02T02:34:01.750Z,83.83
2023-04-02T02:35:12.633Z,83.82
2023-04-02T02:36:33.769Z,83.97
2023-04-02T02:37:35.114Z,84.30
2023-04-02T02:38:48.620Z,83.75
2023-04-02T02:39:55.109Z,84.54
2023-04-02T02:40:53.224Z,85.26
2023-04-02T02:42:12.178Z,85.55
2023-04-02T02:43:12.290Z,84.15
2023-04-02T02:44:17.505Z,83.88
2023-04-02T02:45:22.410Z,84.11
2023-04-02T02:46:20.322Z,85.14
2023-04-02T02:47:19.550Z,84.51
2023-04-02T02:48:19.657Z,84.09
2023-04-02T02:49:22.678Z,84.14
2023-04-02T02:50:23.078Z,83.79
2023-04-02T02:51:27.550Z,84.38
2023-04-02T02:52:41.388Z,84.12
2023-04-02T02:53:49.650Z,83.93
2023-04-02T02:54:51.550Z,83.72
2023-04-02T02:55:43.909Z,84.34
2023-04-02T02:56:55.804Z,84.00
2023-04-02T02:57:53.062Z,84.62
2023-04-02T02:58:45.905Z,85.16
2023-04-02T02:59:46.879Z,84.40
2023-04-02T03:00:42.175Z,84.23
2023-04-02T03:01:34.062Z,83.63
2023-04-02T03:02:29.335Z,83.21
2023-04-02T03:03:28.006Z,84.52
2023-04-02T03:04:25.031Z,84.76
2023-04-02T03:05:24.962Z,84.37
2023-04-02T03:06:21.335Z,84.80
2023-04-02T03:07:25.562Z,84.24
2023-04-02T03:08:29.182Z,83.85
2023-04-02T03:09:41.189Z,84.22
2023-04-02T03:11:08.143Z,83.50
2023-04-02T03:12:29.500Z,84.13
2023-04-02T03:13:29.012Z,84.38
2023-04-02T03:14:32.585Z,84.79
2023-04-02T03:15:48.013Z,85.84
2023-04-02T03:16:49.018Z,85.71
2023-04-02T03:17:58.939Z,85.11
2023-04-02T03:19:05.312Z,84.66
2023-04-02T03:20:13.627Z,84.54
2023-04-02T03:21:29.566Z,84.91
2023-04-02T03:22:37.248Z,84.60
2023-04-02T03:23:51.305Z,84.58
2023-04-02T03:25:22.939Z,84.20
2023-04-02T03:26:36.959Z,83.67
2023-04-02T03:27:36.550Z,83.45
2023-04-02T03:28:37.369Z,83.69
2023-04-02T03:29:35.705Z,83.75
2023-04-02T03:30:53.769Z,83.84
2023-04-02T03:32:14.738Z,84.03
2023-04-02T03:33:33.976Z,84.37
2023-04-02T03:34:44.204Z,83.30
2023-04-02T03:36:22.443Z,82.81
2023-04-02T03:37:22.691Z,82.47
2023-04-02T03:38:25.254Z,83.35
2023-04-02T03:39:26.919Z,83.63
2023-04-02T03:40:25.377Z,83.52
2023-04-02T03:41:24.278Z,83.26
2023-04-02T03:42:27.134Z,83.87
2023-04-02T03:43:36.841Z,84.43
2023-04-02T03:45:00.283Z,83.63
2023-04-02T03:46:02.946Z,83.88
2023-04-02T03:47:35.296Z,83.96
2023-04-02T03:48:38.881Z,83.81
2023-04-02T03:49:39.220Z,84.21
2023-04-02T03:50:57.316Z,84.04
2023-04-02T03:51:58.206Z,84.06
2023-04-02T03:52:50.391Z,83.94
2023-04-02T03:53:44.592Z,83.69
2023-04-02T03:54:38.290Z,83.71
2023-04-02T03:55:33.734Z,83.53
2023-04-02T03:56:28.989Z,83.96
2023-04-02T03:57:48.244Z,84.11
2023-04-02T03:58:47.333Z,83.42
2023-04-02T04:00:02.336Z,83.97
2023-04-02T04:01:05.804Z,84.20
2023-04-02T04:02:34.933Z,84.19
2023-04-02T04:03:32.746Z,83.77
2023-04-02T04:04:30.344Z,84.06
2023-04-02T04:05:28.502Z,84.73
2023-04-02T04:06:29.639Z,84.78
2023-04-02T04:07:36.692Z,84.71
2023-04-02T04:08:42.858Z,85.03
2023-04-02T04:09:39.184Z,85.56
2023-04-02T04:10:33.027Z,85.48
2023-04-02T04:11:32.334Z,85.25
2023-04-02T04:12:40.136Z,84.21
2023-04-02T04:14:03.108Z,85.25
2023-04-02T04:15:07.184Z,85.23
2023-04-02T04:16:07.855Z,84.62
2023-04-02T04:17:09.531Z,85.48
2023-04-02T04:18:43.907Z,84.92
2023-04-02T04:19:48.544Z,85.49
2023-04-02T04:20:57.009Z,85.90
2023-04-02T04:21:56.991Z,85.04
2023-04-02T04:22:55.942Z,84.52
2023-04-02T04:23:51.600Z,85.04
2023-04-02T04:24:47.995Z,85.20
2023-04-02T04:25:41.710Z,84.00
2023-04-02T04:27:09.736Z,84.98
2023-04-02T04:28:21.497Z,85.04
2023-04-02T04:29:38.326Z,84.33
2023-04-02T04:30:53.352Z,84.45
2023-04-02T04:31:56.748Z,84.54
2023-04-02T04:33:01.823Z,84.94
2023-04-02T04:34:04.850Z,85.92
2023-04-02T04:35:08.140Z,85.20
2023-04-02T04:36:03.282Z,84.65
2023-04-02T04:37:07.994Z,83.81
2023-04-02T04:38:18.233Z,84.54
2023-04-02T04:39:17.805Z,84.11
2023-04-02T04:40:22.917Z,84.03
2023-04-02T04:41:24.308Z,84.05
2023-04-02T04:42:28.294Z,84.04
2023-04-02T04:43:45.553Z,83.29
2023-04-02T04:44:55.360Z,84.21
2023-04-02T04:46:03.436Z,83.63
2023-04-02T04:47:16.719Z,84.29
2023-04-02T04:48:26.808Z,84.42
2023-04-02T04:49:43.929Z,84.55
2023-04-02T04:50:42.255Z,83.94
2023-04-02T04:51:42.428Z,84.51
2023-04-02T04:52:38.625Z,84.38
2023-04-02T04:53:31.764Z,84.05
2023-04-02T04:54:28.732Z,83.57
2023-04-02T04:55:29.536Z,83.38
2023-04-02T04:56:27.975Z,83.51
2023-04-02T04:57:36.604Z,83.89
2023-04-02T04:58:48.233Z,83.88
2023-04-02T04:59:47.087Z,83.92
2023-04-02T05:01:03.453Z,83.84
2023-04-02T05:02:10.476Z,83.71
2023-04-02T05:03:21.859Z,82.28
2023-04-02T05:04:19.248Z,82.78
2023-04-02T05:05:24.138Z,83.24
2023-04-02T05:06:42.347Z,83.65
2023-04-02T05:07:49.197Z,84.25
2023-04-02T05:08:48.264Z,82.99
2023-04-02T05:10:13.270Z,83.75
2023-04-02T05:11:19.258Z,84.25
2023-04-02T05:12:32.426Z,83.41
2023-04-02T05:13:35.608Z,82.99
2023-04-02T05:14:42.258Z,83.12
2023-04-02T05:15:55.564Z,83.39
2023-04-02T05:17:06.010Z,83.93
2023-04-02T05:18:27.757Z,83.28
2023-04-02T05:19:32.815Z,82.55
2023-04-02T05:20:40.554Z,82.86
2023-04-02T05:21:54.777Z,82.84
2023-04-02T05:22:58.522Z,83.07
2023-04-02T05:24:24.423Z,83.74
2023-04-02T05:25:32.080Z,83.29
2023-04-02T05:26:41.243Z,83.14
2023-04-02T05:27:47.651Z,83.74
2023-04-02T05:28:52.361Z,83.89
2023-04-02T05:29:52.034Z,83.93
2023-04-02T05:31:04.493Z,82.63
2023-04-02T05:32:23.001Z,83.57
2023-04-02T05:33:23.872Z,83.69
2023-04-02T05:34:27.726Z,83.77
2023-04-02T05:35:28.537Z,84.39
2023-04-02T05:36:25.198Z,82.03
2023-04-02T05:37:24.556Z,81.64
2023-04-02T05:38:27.513Z,82.10
2023-04-02T05:39:24.498Z,82.87
2023-04-02T05:40:36.239Z,82.54
2023-04-02T05:41:58.234Z,82.72
2023-04-02T05:43:07.633Z,83.41
2023-04-02T05:44:06.574Z,82.35
2023-04-02T05:45:23.657Z,82.86
2023-04-02T05:46:25.005Z,83.04
2023-04-02T05:47:28.435Z,82.30
2023-04-02T05:48:30.661Z,83.10
2023-04-02T05:49:39.259Z,83.73
2023-04-02T05:50:37.584Z,83.98
2023-04-02T05:51:46.143Z,84.37
2023-04-02T05:52:47.287Z,83.10
2023-04-02T05:53:49.640Z,82.33
2023-04-02T05:55:03.283Z,81.87
2023-04-02T05:56:03.149Z,82.54
2023-04-02T05:57:42.680Z,81.89
2023-04-02T05:58:43.920Z,82.06
2023-04-02T05:59:54.372Z,82.95
2023-04-02T06:01:00.979Z,82.79
2023-04-02T06:02:03.286Z,82.22
2023-04-02T06:03:07.473Z,82.52
2023-04-02T06:04:26.671Z,82.62
2023-04-02T06:05:36.823Z,82.80
2023-04-02T06:06:41.412Z,83.22
2023-04-02T06:07:40.978Z,83.11
2023-04-02T06:08:43.357Z,82.76
2023-04-02T06:10:01.290Z,82.19
2023-04-02T06:10:57.081Z,82.64
2023-04-02T06:12:19.241Z,82.96
2023-04-02T06:13:18.594Z,82.33
2023-04-02T06:14:14.254Z,82.32
2023-04-02T06:15:06.843Z,82.08
2023-04-02T06:15:58.528Z,81.85
2023-04-02T06:16:54.771Z,82.07
2023-04-02T06:17:53.657Z,82.24
2023-04-02T06:18:46.033Z,82.01
2023-04-02T06:19:42.042Z,82.06
2023-04-02T06:20:34.411Z,82.27
2023-04-02T06:21:25.984Z,81.82
2023-04-02T06:22:21.243Z,81.89
2023-04-02T06:23:38.750Z,80.79
2023-04-02T06:24:34.358Z,81.13
2023-04-02T06:25:38.018Z,81.62
2023-04-02T06:26:39.742Z,81.02
2023-04-02T06:27:34.754Z,81.10
2023-04-02T06:28:43.099Z,81.15
2023-04-02T06:29:39.878Z,81.32
2023-04-02T06:30:41.675Z,81.78
2023-04-02T06:31:47.421Z,81.67
2023-04-02T06:32:40.601Z,81.99
2023-04-02T06:33:32.434Z,82.34
2023-04-02T06:34:27.850Z,81.74
2023-04-02T06:35:30.387Z,82.80
2023-04-02T06:36:28.420Z,82.00
2023-04-02T06:37:38.582Z,80.39
2023-04-02T06:38:54.468Z,81.46
2023-04-02T06:39:46.523Z,80.07
2023-04-02T06:40:46.724Z,80.33
2023-04-02T06:41:56.694Z,81.03
2023-04-02T06:43:11.628Z,80.52
2023-04-02T06:44:28.007Z,80.64
2023-04-02T06:45:41.980Z,80.87
2023-04-02T06:47:10.768Z,80.25
2023-04-02T06:48:04.345Z,80.36
2023-04-02T06:49:20.642Z,81.37
2023-04-02T06:50:28.679Z,81.49
2023-04-02T06:51:26.097Z,81.32
2023-04-02T06:52:35.102Z,80.45
2023-04-02T06:53:37.695Z,79.85
2023-04-02T06:54:30.567Z,79.62
2023-04-02T06:55:34.054Z,79.35
2023-04-02T06:56:31.860Z,79.93
2023-04-02T06:57:23.793Z,79.53
2023-04-02T06:58:19.493Z,80.36
2023-04-02T06:59:12.764Z,80.34
2023-04-02T07:00:04.915Z,80.74
2023-04-02T07:00:57.413Z,79.60
2023-04-02T07:02:34.362Z,79.77
2023-04-02T07:03:30.457Z,80.62
2023-04-02T07:04:26.372Z,80.51
2023-04-02T07:05:21.161Z,80.95
2023-04-02T07:06:19.183Z,80.86
2023-04-02T07:07:12.234Z,79.70
2023-04-02T07:08:07.916Z,80.44
2023-04-02T07:08:59.298Z,80.29
2023-04-02T07:09:51.170Z,79.85
2023-04-02T07:10:42.691Z,79.62
2023-04-02T07:11:35.336Z,80.58
2023-04-02T07:12:29.582Z,80.35
2023-04-02T07:13:24.180Z,81.16
2023-04-02T07:14:15.981Z,80.95
2023-04-02T07:15:07.781Z,81.13
2023-04-02T07:16:02.752Z,80.34
2023-04-02T07:16:54.739Z,79.19
2023-04-02T07:17:46.794Z,79.39
2023-04-02T07:18:38.566Z,80.03
2023-04-02T07:19:31.349Z,80.04
2023-04-02T07:20:30.797Z,79.03
2023-04-02T07:21:28.938Z,78.55
2023-04-02T07:22:22.121Z,79.57
2023-04-02T07:23:21.171Z,80.30
2023-04-02T07:24:13.081Z,80.19
2023-04-02T07:25:04.697Z,80.22
2023-04-02T07:25:58.427Z,80.62
2023-04-02T07:26:49.964Z,78.98
2023-04-02T07:27:43.712Z,79.37
2023-04-02T07:28:35.405Z,79.26
2023-04-02T07:29:28.525Z,78.63
2023-04-02T07:30:20.217Z,78.14
2023-04-02T07:31:24.405Z,78.27
2023-04-02T07:32:16.277Z,78.77
2023-04-02T07:33:13.270Z,79.27
2023-04-02T07:34:07.071Z,79.18
2023-04-02T07:34:58.590Z,78.64
2023-04-02T07:35:51.670Z,79.20
2023-04-02T07:36:43.122Z,78.93
2023-04-02T07:37:34.903Z,78.13
2023-04-02T07:38:27.053Z,79.54
2023-04-02T07:39:18.660Z,79.64
2023-04-02T07:40:18.229Z,79.70
2023-04-02T07:41:13.449Z,80.07
2023-04-02T07:42:04.906Z,78.97
2023-04-02T07:42:56.327Z,78.84
2023-04-02T07:43:47.849Z,78.57
2023-04-02T07:44:39.260Z,78.27
2023-04-02T07:45:31.390Z,78.06
2023-04-02T07:46:22.955Z,78.69
2023-04-02T07:47:16.874Z,77.23
2023-04-02T07:48:13.310Z,78.03
2023-04-02T07:49:05.047Z,78.82
2023-04-02T07:49:56.496Z,78.29
2023-04-02T07:50:48.252Z,78.67
2023-04-02T07:51:40.028Z,77.40
2023-04-02T07:52:31.556Z,77.44
2023-04-02T07:53:29.936Z,77.28
2023-04-02T07:54:24.109Z,77.38
2023-04-02T07:55:16.962Z,77.60
2023-04-02T07:56:08.552Z,77.79
2023-04-02T07:57:00.085Z,77.84
2023-04-02T07:57:56.629Z,77.74
2023-04-02T07:58:48.164Z,77.24
2023-04-02T07:59:39.779Z,78.04
2023-04-02T08:00:31.216Z,77.33
2023-04-02T08:01:26.312Z,77.26
2023-04-02T08:02:22.319Z,77.51
2023-04-02T08:03:14.037Z,76.79
2023-04-02T08:04:07.964Z,76.76
2023-04-02T08:04:59.730Z,78.34
2023-04-02T08:05:56.578Z,76.88
2023-04-02T08:06:50.300Z,77.53
2023-04-02T08:07:42.297Z,77.30
2023-04-02T08:08:33.672Z,78.34
2023-04-02T08:09:26.744Z,76.12
2023-04-02T08:10:20.181Z,76.84
2023-04-02T08:11:14.461Z,76.93
2023-04-02T08:12:06.382Z,77.64
2023-04-02T08:12:57.882Z,76.71
2023-04-02T08:13:49.401Z,77.35
2023-04-02T08:14:40.996Z,77.05
2023-04-02T08:15:32.498Z,77.56
2023-04-02T08:16:25.267Z,77.53
2023-04-02T08:17:17.023Z,77.06
2023-04-02T08:18:08.652Z,76.86
2023-04-02T08:19:01.588Z,77.65
2023-04-02T08:19:55.035Z,77.05
2023-04-02T08:20:47.161Z,77.83
2023-04-02T08:21:38.808Z,77.51
2023-04-02T08:22:31.798Z,77.21
2023-04-02T08:23:24.712Z,77.45
2023-04-02T08:24:19.075Z,76.67
2023-04-02T08:25:20.017Z,78.09
2023-04-02T08:26:17.279Z,75.99
2023-04-02T08:27:15.136Z,76.73
2023-04-02T08:28:08.058Z,76.58
2023-04-02T08:28:59.551Z,76.57
2023-04-02T08:29:51.142Z,76.89
2023-04-02T08:30:42.893Z,76.20
2023-04-02T08:31:34.333Z,75.32
2023-04-02T08:32:28.784Z,76.31
2023-04-02T08:33:22.507Z,76.16
2023-04-02T08:34:15.601Z,75.13
2023-04-02T08:35:08.596Z,76.12
2023-04-02T08:36:02.703Z,75.13
2023-04-02T08:36:58.673Z,75.17
2023-04-02T08:37:50.469Z,75.03
2023-04-02T08:38:42.102Z,75.57
2023-04-02T08:39:35.059Z,77.07
2023-04-02T08:40:49.097Z,76.41
2023-04-02T08:42:06.783Z,75.78
2023-04-02T08:43:23.766Z,75.97
2023-04-02T08:44:44.742Z,74.59
2023-04-02T08:46:10.690Z,75.93
2023-04-02T08:47:06.918Z,75.08
2023-04-02T08:47:59.908Z,75.31
2023-04-02T08:48:58.837Z,75.12
2023-04-02T08:50:00.813Z,76.41
2023-04-02T08:50:52.906Z,76.81
2023-04-02T08:51:47.219Z,76.37
2023-04-02T08:52:39.130Z,75.41
2023-04-02T08:53:36.764Z,76.20
2023-04-02T08:54:34.321Z,75.80
2023-04-02T08:55:47.782Z,76.32
2023-04-02T08:57:04.099Z,74.51
2023-04-02T08:58:13.228Z,74.98
2023-04-02T08:59:36.166Z,75.56
2023-04-02T09:00:44.063Z,74.69
2023-04-02T09:01:48.579Z,74.51
2023-04-02T09:02:49.379Z,74.77
2023-04-02T09:03:54.339Z,75.43
2023-04-02T09:04:46.075Z,74.63
2023-04-02T09:05:50.679Z,74.58
2023-04-02T09:06:43.926Z,73.52
2023-04-02T09:07:37.783Z,74.13
2023-04-02T09:08:33.372Z,74.62
2023-04-02T09:09:30.689Z,74.65
2023-04-02T09:10:39.193Z,73.89
2023-04-02T09:11:44.760Z,74.22
2023-04-02T09:12:43.561Z,74.57
2023-04-02T09:13:48.940Z,75.20
2023-04-02T09:15:02.988Z,74.67
2023-04-02T09:16:10.717Z,73.34
2023-04-02T09:17:04.552Z,73.39
2023-04-02T09:18:12.878Z,73.98
2023-04-02T09:19:26.172Z,74.00
2023-04-02T09:20:23.985Z,73.37
2023-04-02T09:21:33.076Z,73.93
2023-04-02T09:22:31.847Z,72.12
2023-04-02T09:23:26.801Z,70.67
2023-04-02T09:24:22.340Z,71.30
2023-04-02T09:25:27.043Z,71.06
2023-04-02T09:26:24.708Z,71.18
2023-04-02T09:27:23.505Z,72.15
2023-04-02T09:28:15.707Z,71.05
2023-04-02T09:29:31.335Z,72.51
2023-04-02T09:30:29.651Z,74.07
2023-04-02T09:31:34.436Z,70.87
2023-04-02T09:32:54.571Z,70.79
2023-04-02T09:33:49.137Z,70.93
2023-04-02T09:34:40.613Z,71.25
2023-04-02T09:35:34.467Z,71.28
2023-04-02T09:36:36.513Z,70.57
2023-04-02T09:37:27.971Z,71.32
2023-04-02T09:38:39.412Z,70.51
2023-04-02T09:39:32.721Z,71.34
2023-04-02T09:40:34.119Z,70.44
2023-04-02T09:41:29.469Z,71.35
2023-04-02T09:42:36.159Z,72.41
2023-04-02T09:43:32.318Z,72.40
2023-04-02T09:44:26.269Z,73.15
2023-04-02T09:45:25.313Z,71.51
2023-04-02T09:46:25.812Z,71.99
2023-04-02T09:47:26.281Z,71.30
2023-04-02T09:48:30.497Z,71.50
2023-04-02T09:49:27.096Z,70.85
2023-04-02T09:50:21.502Z,71.71
2023-04-02T09:51:22.867Z,72.83
2023-04-02T09:52:19.972Z,72.70
2023-04-02T09:53:29.536Z,72.56
2023-04-02T09:54:23.252Z,72.44
2023-04-02T09:55:15.279Z,72.26
2023-04-02T09:56:24.330Z,72.44
2023-04-02T09:57:23.538Z,72.22
2023-04-02T09:58:21.120Z,72.06
2023-04-02T09:59:13.526Z,72.47
2023-04-02T10:00:29.874Z,71.46
2023-04-02T10:01:29.881Z,71.96
2023-04-02T10:02:30.158Z,71.53
2023-04-02T10:03:26.106Z,72.42
2023-04-02T10:04:36.290Z,72.58
2023-04-02T10:05:40.731Z,71.66
2023-04-02T10:06:37.923Z,72.03
2023-04-02T10:07:43.720Z,72.88
2023-04-02T10:08:36.664Z,71.25
2023-04-02T10:09:37.083Z,71.68
2023-04-02T10:10:32.982Z,70.60
2023-04-02T10:11:46.316Z,70.96
2023-04-02T10:12:48.668Z,71.12
2023-04-02T10:14:11.910Z,70.47
2023-04-02T10:15:06.053Z,72.00
2023-04-02T10:16:24.397Z,69.18
2023-04-02T10:17:31.313Z,70.42
2023-04-02T10:18:46.635Z,71.57
2023-04-02T10:19:45.810Z,69.45
2023-04-02T10:20:50.472Z,69.39
2023-04-02T10:21:47.129Z,69.59
2023-04-02T10:22:46.156Z,69.52
2023-04-02T10:23:37.621Z,69.79
2023-04-02T10:24:31.454Z,68.41
2023-04-02T10:25:30.154Z,69.27
2023-04-02T10:26:37.997Z,69.99
2023-04-02T10:27:45.214Z,69.98
2023-04-02T10:29:14.300Z,68.32
2023-04-02T10:30:29.225Z,68.92
2023-04-02T10:31:33.456Z,69.31
2023-04-02T10:32:36.742Z,66.80
2023-04-02T10:33:37.069Z,67.42
2023-04-02T10:34:37.493Z,68.27
2023-04-02T10:35:38.596Z,68.13
2023-04-02T10:36:52.980Z,68.05
2023-04-02T10:38:18.204Z,67.79
2023-04-02T10:39:24.104Z,67.81
2023-04-02T10:40:38.695Z,66.85
2023-04-02T10:41:46.157Z,67.58
2023-04-02T10:43:21.796Z,66.25
2023-04-02T10:44:39.156Z,67.50
2023-04-02T10:46:02.932Z,65.68
2023-04-02T10:47:06.475Z,66.49
2023-04-02T10:48:28.691Z,65.60
2023-04-02T10:49:51.120Z,68.36
2023-04-02T10:50:54.433Z,68.60
2023-04-02T10:51:51.536Z,67.99
2023-04-02T10:52:55.034Z,67.48
2023-04-02T10:54:18.605Z,68.21
2023-04-02T10:55:33.983Z,69.37
2023-04-02T10:56:44.172Z,66.03
2023-04-02T10:57:43.074Z,67.92
2023-04-02T10:58:47.773Z,66.20
2023-04-02T11:00:39.989Z,65.21
2023-04-02T11:01:41.491Z,66.96
2023-04-02T11:02:53.364Z,64.72
2023-04-02T11:03:57.799Z,66.49
2023-04-02T11:04:57.086Z,67.47
2023-04-02T11:06:00.499Z,65.38
2023-04-02T11:07:13.275Z,65.11
2023-04-02T11:08:46.801Z,65.16
2023-04-02T11:09:44.682Z,64.90
2023-04-02T11:10:44.561Z,65.20
2023-04-02T11:11:41.940Z,65.02
2023-04-02T11:12:49.683Z,66.71
2023-04-02T11:14:02.655Z,65.56
2023-04-02T11:14:56.392Z,63.43
2023-04-02T11:15:51.305Z,65.71
2023-04-02T11:17:13.228Z,64.93
2023-04-02T11:18:24.384Z,64.86
2023-04-02T11:19:19.581Z,66.80
2023-04-02T11:20:49.823Z,65.50
2023-04-02T11:22:01.319Z,65.34
2023-04-02T11:23:12.370Z,65.19
2023-04-02T11:24:06.355Z,65.50
2023-04-02T11:24:58.776Z,64.97
2023-04-02T11:25:50.243Z,65.72
2023-04-02T11:26:47.393Z,65.49
2023-04-02T11:27:47.828Z,66.07
2023-04-02T11:30:18.639Z,65.76
2023-04-02T11:31:20.613Z,63.64
2023-04-02T11:32:27.039Z,64.37
2023-04-02T11:33:44.070Z,65.64
2023-04-02T11:35:03.078Z,65.91
2023-04-02T11:35:58.734Z,66.50
2023-04-02T11:36:53.694Z,64.70
2023-04-02T11:37:46.046Z,66.56
2023-04-02T11:38:52.343Z,66.25
2023-04-02T11:39:59.592Z,66.01
2023-04-02T11:40:54.928Z,64.99
2023-04-02T11:42:24.835Z,65.53
2023-04-02T11:43:35.226Z,64.75
2023-04-02T11:44:26.872Z,65.71
2023-04-02T11:45:25.685Z,65.46
2023-04-02T11:46:19.791Z,64.38
2023-04-02T11:47:22.657Z,66.10
2023-04-02T11:48:17.328Z,64.36
2023-04-02T11:49:39.228Z,63.45
2023-04-02T11:50:41.281Z,64.11
2023-04-02T11:51:33.913Z,64.11
2023-04-02T11:52:45.311Z,64.10
2023-04-02T11:53:36.966Z,62.74
2023-04-02T11:54:33.175Z,62.26
2023-04-02T11:55:29.650Z,63.80
2023-04-02T11:56:35.211Z,64.75
2023-04-02T11:57:43.723Z,65.85
2023-04-02T11:59:05.313Z,65.25
2023-04-02T12:00:11.532Z,62.41
2023-04-02T12:01:09.078Z,62.60
2023-04-02T12:02:21.117Z,64.61
2023-04-02T12:03:38.328Z,63.36
2023-04-02T12:04:54.446Z,62.58
2023-04-02T12:05:58.647Z,62.66
2023-04-02T12:07:18.880Z,63.13
2023-04-02T12:09:04.661Z,62.92
2023-04-02T12:10:02.690Z,63.14
2023-04-02T12:10:59.408Z,64.74
2023-04-02T12:11:55.406Z,64.75
2023-04-02T12:12:52.270Z,64.10
2023-04-02T12:13:43.640Z,64.26
2023-04-02T12:14:38.058Z,64.92
2023-04-02T12:15:46.524Z,64.80
2023-04-02T12:16:38.365Z,63.57
2023-04-02T12:18:55.956Z,64.52
2023-04-02T12:19:51.456Z,63.24
2023-04-02T12:20:50.794Z,63.80
2023-04-02T12:21:51.085Z,63.13
2023-04-02T12:22:53.973Z,63.92
2023-04-02T12:23:49.311Z,64.06
2023-04-02T12:24:41.644Z,64.35
2023-04-02T12:25:41.086Z,63.96
2023-04-02T12:26:37.863Z,64.34
2023-04-02T12:27:29.944Z,64.50
2023-04-02T12:28:22.597Z,64.55
2023-04-02T12:29:27.285Z,64.45
2023-04-02T12:30:23.485Z,64.60
2023-04-02T12:31:19.167Z,64.60
2023-04-02T12:32:27.687Z,65.33
2023-04-02T12:33:20.875Z,64.81
2023-04-02T12:34:20.792Z,63.79
2023-04-02T12:35:34.602Z,64.93
2023-04-02T12:36:26.835Z,65.24
2023-04-02T12:37:28.164Z,64.53
2023-04-02T12:38:25.674Z,64.18
2023-04-02T12:39:17.309Z,63.96
2023-04-02T12:40:17.517Z,64.28
2023-04-02T12:41:30.883Z,64.34
2023-04-02T12:42:36.672Z,62.99
2023-04-02T12:43:31.790Z,64.38
2023-04-02T12:44:27.735Z,64.11
2023-04-02T12:45:34.201Z,64.96
2023-04-02T12:46:26.778Z,65.10
2023-04-02T12:47:18.466Z,62.14
2023-04-02T12:48:35.946Z,61.96
2023-04-02T12:49:40.376Z,63.16
2023-04-02T12:50:34.319Z,62.46
2023-04-02T12:51:29.528Z,61.38
2023-04-02T12:52:28.604Z,62.04
2023-04-02T12:53:30.267Z,60.59
2023-04-02T12:54:30.863Z,60.45
2023-04-02T12:55:25.924Z,62.01
2023-04-02T12:56:24.149Z,62.44
2023-04-02T12:57:27.625Z,63.65
2023-04-02T12:58:25.891Z,60.11
2023-04-02T12:59:36.107Z,61.05
2023-04-02T13:00:32.332Z,60.24
2023-04-02T13:01:29.282Z,59.17
2023-04-02T13:02:53.047Z,60.68
2023-04-02T13:04:16.593Z,60.51
2023-04-02T13:05:13.069Z,60.04
2023-04-02T13:06:37.140Z,59.74
2023-04-02T13:07:45.117Z,62.15
2023-04-02T13:08:56.474Z,60.68
2023-04-02T13:10:22.731Z,61.43
2023-04-02T13:11:14.578Z,62.77
2023-04-02T13:12:08.717Z,59.96
2023-04-02T13:13:04.072Z,60.96
2023-04-02T13:14:04.845Z,61.01
2023-04-02T13:15:28.396Z,59.97
2023-04-02T13:16:20.215Z,59.50
2023-04-02T13:17:38.795Z,61.95
2023-04-02T13:18:35.625Z,62.53
2023-04-02T13:19:38.193Z,60.36
2023-04-02T13:20:38.963Z,59.47
2023-04-02T13:21:42.192Z,61.36
2023-04-02T13:22:42.886Z,60.83
2023-04-02T13:23:42.723Z,61.31
2023-04-02T13:24:44.300Z,62.50